sensor_id;sensor_type;location;lat;lon;timestamp;temperature;humidity
74220;DHT22;62580;54.416;11.120;2022-12-26T00:02:57;20.40;44.50
74220;DHT22;62580;54.416;11.120;2022-12-26T00:12:58;20.40;44.50
74220;DHT22;62580;54.416;11.120;2022-12-26T00:23:00;20.40;45.20
74220;DHT22;62580;54.416;11.120;2022-12-26T00:33:01;20.40;44.60
74220;DHT22;62580;54.416;11.120;2022-12-26T00:43:03;20.30;44.50
74220;DHT22;62580;54.416;11.120;2022-12-26T00:53:03;20.30;44.50
74220;DHT22;62580;54.416;11.120;2022-12-26T01:03:07;20.30;44.50
74220;DHT22;62580;54.416;11.120;2022-12-26T01:13:08;20.30;44.50
74220;DHT22;62580;54.416;11.120;2022-12-26T01:23:10;20.30;44.60
74220;DHT22;62580;54.416;11.120;2022-12-26T01:33:10;20.30;44.60
74220;DHT22;62580;54.416;11.120;2022-12-26T01:43:14;20.30;44.70
74220;DHT22;62580;54.416;11.120;2022-12-26T01:53:18;20.20;44.70
74220;DHT22;62580;54.416;11.120;2022-12-26T02:03:21;20.20;44.80
74220;DHT22;62580;54.416;11.120;2022-12-26T02:13:23;20.20;44.80
74220;DHT22;62580;54.416;11.120;2022-12-26T02:23:53;20.20;44.90
74220;DHT22;62580;54.416;11.120;2022-12-26T02:34:04;20.20;45.00
74220;DHT22;62580;54.416;11.120;2022-12-26T02:44:17;20.20;45.00
74220;DHT22;62580;54.416;11.120;2022-12-26T02:54:25;20.20;45.00
74220;DHT22;62580;54.416;11.120;2022-12-26T03:04:29;20.30;45.00
74220;DHT22;62580;54.416;11.120;2022-12-26T03:14:36;20.20;44.90
74220;DHT22;62580;54.416;11.120;2022-12-26T03:24:38;20.20;44.90
74220;DHT22;62580;54.416;11.120;2022-12-26T03:34:42;20.20;44.90
74220;DHT22;62580;54.416;11.120;2022-12-26T03:44:49;20.20;44.90
74220;DHT22;62580;54.416;11.120;2022-12-26T03:54:56;20.20;45.00
74220;DHT22;62580;54.416;11.120;2022-12-26T04:04:58;20.10;44.80
74220;DHT22;62580;54.416;11.120;2022-12-26T04:15:06;20.20;44.90
74220;DHT22;62580;54.416;11.120;2022-12-26T04:25:15;20.20;44.90
74220;DHT22;62580;54.416;11.120;2022-12-26T04:35:20;20.30;44.70
74220;DHT22;62580;54.416;11.120;2022-12-26T04:45:22;20.30;44.50
74220;DHT22;62580;54.416;11.120;2022-12-26T04:55:25;20.30;44.60
74220;DHT22;62580;54.416;11.120;2022-12-26T05:05:26;20.40;44.60
74220;DHT22;62580;54.416;11.120;2022-12-26T05:15:28;20.40;44.50
74220;DHT22;62580;54.416;11.120;2022-12-26T05:25:31;20.50;44.50
74220;DHT22;62580;54.416;11.120;2022-12-26T05:35:34;20.50;44.30
74220;DHT22;62580;54.416;11.120;2022-12-26T05:45:35;20.60;44.30
74220;DHT22;62580;54.416;11.120;2022-12-26T05:55:38;20.60;44.30
74220;DHT22;62580;54.416;11.120;2022-12-26T06:05:38;20.60;44.40
74220;DHT22;62580;54.416;11.120;2022-12-26T06:15:41;20.60;44.70
74220;DHT22;62580;54.416;11.120;2022-12-26T06:25:43;20.60;44.80
74220;DHT22;62580;54.416;11.120;2022-12-26T06:35:45;21.30;44.80
74220;DHT22;62580;54.416;11.120;2022-12-26T06:45:53;20.80;46.80
74220;DHT22;62580;54.416;11.120;2022-12-26T06:56:04;21.00;47.30
74220;DHT22;62580;54.416;11.120;2022-12-26T07:06:07;21.20;47.60
74220;DHT22;62580;54.416;11.120;2022-12-26T07:16:12;21.20;48.60
74220;DHT22;62580;54.416;11.120;2022-12-26T07:26:13;21.20;49.40
74220;DHT22;62580;54.416;11.120;2022-12-26T07:36:15;21.00;46.60
74220;DHT22;62580;54.416;11.120;2022-12-26T07:46:16;20.90;46.10
74220;DHT22;62580;54.416;11.120;2022-12-26T07:56:18;20.90;46.00
74220;DHT22;62580;54.416;11.120;2022-12-26T08:06:19;20.90;46.10
74220;DHT22;62580;54.416;11.120;2022-12-26T08:16:21;20.80;46.10
74220;DHT22;62580;54.416;11.120;2022-12-26T08:26:21;20.80;46.10
74220;DHT22;62580;54.416;11.120;2022-12-26T08:36:23;20.80;46.00
74220;DHT22;62580;54.416;11.120;2022-12-26T08:46:24;20.80;45.90
74220;DHT22;62580;54.416;11.120;2022-12-26T08:56:27;20.80;45.90
74220;DHT22;62580;54.416;11.120;2022-12-26T09:06:30;20.80;45.80
74220;DHT22;62580;54.416;11.120;2022-12-26T09:16:38;20.80;45.80
74220;DHT22;62580;54.416;11.120;2022-12-26T09:26:38;20.80;45.90
74220;DHT22;62580;54.416;11.120;2022-12-26T09:36:40;20.80;45.80
74220;DHT22;62580;54.416;11.120;2022-12-26T09:46:47;20.80;45.60
74220;DHT22;62580;54.416;11.120;2022-12-26T09:56:52;20.80;45.50
74220;DHT22;62580;54.416;11.120;2022-12-26T10:07:01;20.80;45.40
74220;DHT22;62580;54.416;11.120;2022-12-26T10:17:11;20.80;45.40
74220;DHT22;62580;54.416;11.120;2022-12-26T10:27:17;20.60;45.20
74220;DHT22;62580;54.416;11.120;2022-12-26T10:37:24;20.60;45.40
74220;DHT22;62580;54.416;11.120;2022-12-26T10:47:26;20.70;45.20
74220;DHT22;62580;54.416;11.120;2022-12-26T10:57:34;20.80;45.00
74220;DHT22;62580;54.416;11.120;2022-12-26T11:07:37;20.90;44.80
74220;DHT22;62580;54.416;11.120;2022-12-26T11:17:42;20.90;44.60
74220;DHT22;62580;54.416;11.120;2022-12-26T11:27:45;20.90;44.60
74220;DHT22;62580;54.416;11.120;2022-12-26T11:37:51;20.80;44.60
74220;DHT22;62580;54.416;11.120;2022-12-26T11:47:55;20.80;44.70
74220;DHT22;62580;54.416;11.120;2022-12-26T11:57:59;20.70;44.70
74220;DHT22;62580;54.416;11.120;2022-12-26T12:08:17;20.70;44.70
74220;DHT22;62580;54.416;11.120;2022-12-26T12:18:30;20.70;44.60
74220;DHT22;62580;54.416;11.120;2022-12-26T12:39:09;20.70;44.40
74220;DHT22;62580;54.416;11.120;2022-12-26T12:49:26;20.70;44.30
74220;DHT22;62580;54.416;11.120;2022-12-26T12:59:37;20.70;44.30
74220;DHT22;62580;54.416;11.120;2022-12-26T13:09:43;20.70;44.30
74220;DHT22;62580;54.416;11.120;2022-12-26T13:19:53;20.70;44.10
74220;DHT22;62580;54.416;11.120;2022-12-26T13:29:56;20.70;44.20
74220;DHT22;62580;54.416;11.120;2022-12-26T13:39:58;20.80;44.10
74220;DHT22;62580;54.416;11.120;2022-12-26T14:00:43;20.70;43.80
74220;DHT22;62580;54.416;11.120;2022-12-26T14:10:54;20.70;43.80
74220;DHT22;62580;54.416;11.120;2022-12-26T14:21:20;20.70;43.70
74220;DHT22;62580;54.416;11.120;2022-12-26T14:31:28;20.70;43.60
74220;DHT22;62580;54.416;11.120;2022-12-26T14:42:19;20.70;43.60
74220;DHT22;62580;54.416;11.120;2022-12-26T14:52:35;20.80;43.20
74220;DHT22;62580;54.416;11.120;2022-12-26T15:02:40;20.80;43.10
74220;DHT22;62580;54.416;11.120;2022-12-26T15:24:10;20.80;42.80
74220;DHT22;62580;54.416;11.120;2022-12-26T15:34:31;20.80;42.80
74220;DHT22;62580;54.416;11.120;2022-12-26T15:44:40;20.70;43.10
74220;DHT22;62580;54.416;11.120;2022-12-26T15:54:55;20.70;43.00
74220;DHT22;62580;54.416;11.120;2022-12-26T16:15:28;20.90;42.70
74220;DHT22;62580;54.416;11.120;2022-12-26T16:25:32;20.80;42.70
74220;DHT22;62580;54.416;11.120;2022-12-26T16:35:33;20.80;42.70
74220;DHT22;62580;54.416;11.120;2022-12-26T16:45:37;20.70;42.80
74220;DHT22;62580;54.416;11.120;2022-12-26T16:55:40;20.80;42.60
74220;DHT22;62580;54.416;11.120;2022-12-26T17:05:45;20.90;42.50
74220;DHT22;62580;54.416;11.120;2022-12-26T17:15:50;20.90;42.20
74220;DHT22;62580;54.416;11.120;2022-12-26T17:26:21;20.90;43.30
74220;DHT22;62580;54.416;11.120;2022-12-26T17:36:26;20.80;43.40
74220;DHT22;62580;54.416;11.120;2022-12-26T17:46:31;20.70;43.40
74220;DHT22;62580;54.416;11.120;2022-12-26T17:56:32;20.90;44.60
74220;DHT22;62580;54.416;11.120;2022-12-26T18:06:34;21.00;45.30
74220;DHT22;62580;54.416;11.120;2022-12-26T18:16:35;21.10;45.00
74220;DHT22;62580;54.416;11.120;2022-12-26T18:26:37;20.80;45.10
74220;DHT22;62580;54.416;11.120;2022-12-26T18:36:38;20.80;45.00
74220;DHT22;62580;54.416;11.120;2022-12-26T18:46:41;20.80;45.10
74220;DHT22;62580;54.416;11.120;2022-12-26T18:56:42;20.80;45.00
74220;DHT22;62580;54.416;11.120;2022-12-26T19:06:44;20.90;45.20
74220;DHT22;62580;54.416;11.120;2022-12-26T19:16:45;20.90;45.40
74220;DHT22;62580;54.416;11.120;2022-12-26T19:26:47;20.90;45.40
74220;DHT22;62580;54.416;11.120;2022-12-26T19:36:47;20.80;45.40
74220;DHT22;62580;54.416;11.120;2022-12-26T19:46:49;20.70;45.40
74220;DHT22;62580;54.416;11.120;2022-12-26T19:56:50;21.30;44.30
74220;DHT22;62580;54.416;11.120;2022-12-26T20:06:52;20.80;45.00
74220;DHT22;62580;54.416;11.120;2022-12-26T20:16:54;20.90;44.90
74220;DHT22;62580;54.416;11.120;2022-12-26T20:26:57;20.90;44.90
74220;DHT22;62580;54.416;11.120;2022-12-26T20:36:57;20.90;45.10
74220;DHT22;62580;54.416;11.120;2022-12-26T20:46:59;20.90;45.40
74220;DHT22;62580;54.416;11.120;2022-12-26T20:57:00;20.90;45.40
74220;DHT22;62580;54.416;11.120;2022-12-26T21:07:02;20.80;45.30
74220;DHT22;62580;54.416;11.120;2022-12-26T21:17:03;20.80;45.10
74220;DHT22;62580;54.416;11.120;2022-12-26T21:27:05;20.80;44.90
74220;DHT22;62580;54.416;11.120;2022-12-26T21:37:06;20.80;45.00
74220;DHT22;62580;54.416;11.120;2022-12-26T21:47:08;20.70;45.00
74220;DHT22;62580;54.416;11.120;2022-12-26T21:57:08;20.50;45.20
